sensor_id;sensor_type;location;lat;lon;timestamp;temperature;humidity
8220;DHT22;4151;51.110;7.020;2023-01-20T00:01:29;0.80;99.90
8220;DHT22;4151;51.110;7.020;2023-01-20T00:03:55;0.80;99.90
8220;DHT22;4151;51.110;7.020;2023-01-20T00:06:22;0.80;99.90
8220;DHT22;4151;51.110;7.020;2023-01-20T00:08:52;0.80;99.90
8220;DHT22;4151;51.110;7.020;2023-01-20T00:11:18;0.70;99.90
8220;DHT22;4151;51.110;7.020;2023-01-20T00:13:44;0.70;99.90
8220;DHT22;4151;51.110;7.020;2023-01-20T00:16:11;0.70;99.90
8220;DHT22;4151;51.110;7.020;2023-01-20T00:18:37;0.70;99.90
8220;DHT22;4151;51.110;7.020;2023-01-20T00:21:05;0.70;99.90
8220;DHT22;4151;51.110;7.020;2023-01-20T00:23:31;0.70;99.90
8220;DHT22;4151;51.110;7.020;2023-01-20T00:25:57;0.70;99.90
8220;DHT22;4151;51.110;7.020;2023-01-20T00:28:23;0.60;99.90
8220;DHT22;4151;51.110;7.020;2023-01-20T00:30:48;0.60;99.90
8220;DHT22;4151;51.110;7.020;2023-01-20T00:33:14;0.50;99.90
8220;DHT22;4151;51.110;7.020;2023-01-20T00:35:39;0.40;99.90
8220;DHT22;4151;51.110;7.020;2023-01-20T00:38:05;0.40;99.90
8220;DHT22;4151;51.110;7.020;2023-01-20T00:40:30;0.40;99.90
8220;DHT22;4151;51.110;7.020;2023-01-20T00:42:56;0.40;99.90
8220;DHT22;4151;51.110;7.020;2023-01-20T00:45:22;0.50;99.90
8220;DHT22;4151;51.110;7.020;2023-01-20T00:47:47;0.50;99.90
8220;DHT22;4151;51.110;7.020;2023-01-20T00:50:13;0.50;99.90
8220;DHT22;4151;51.110;7.020;2023-01-20T00:52:38;0.60;99.90
8220;DHT22;4151;51.110;7.020;2023-01-20T00:55:04;0.70;99.90
8220;DHT22;4151;51.110;7.020;2023-01-20T00:57:30;0.80;99.90
8220;DHT22;4151;51.110;7.020;2023-01-20T00:59:55;0.80;99.90
8220;DHT22;4151;51.110;7.020;2023-01-20T01:02:21;0.90;99.90
8220;DHT22;4151;51.110;7.020;2023-01-20T01:04:50;0.90;99.90
8220;DHT22;4151;51.110;7.020;2023-01-20T01:07:16;0.90;99.90
8220;DHT22;4151;51.110;7.020;2023-01-20T01:09:42;1.00;99.90
8220;DHT22;4151;51.110;7.020;2023-01-20T01:12:07;1.00;99.90
8220;DHT22;4151;51.110;7.020;2023-01-20T01:14:33;1.00;99.90
8220;DHT22;4151;51.110;7.020;2023-01-20T01:16:59;1.10;99.90
8220;DHT22;4151;51.110;7.020;2023-01-20T01:19:24;1.10;99.90
8220;DHT22;4151;51.110;7.020;2023-01-20T01:21:50;1.10;99.90
8220;DHT22;4151;51.110;7.020;2023-01-20T01:24:15;1.10;99.90
8220;DHT22;4151;51.110;7.020;2023-01-20T01:26:41;1.10;99.90
8220;DHT22;4151;51.110;7.020;2023-01-20T01:29:06;1.20;99.90
8220;DHT22;4151;51.110;7.020;2023-01-20T01:31:32;1.10;99.90
8220;DHT22;4151;51.110;7.020;2023-01-20T01:33:58;1.10;99.90
8220;DHT22;4151;51.110;7.020;2023-01-20T01:36:23;1.10;99.90
8220;DHT22;4151;51.110;7.020;2023-01-20T01:38:49;1.10;99.90
8220;DHT22;4151;51.110;7.020;2023-01-20T01:41:16;1.10;99.90
8220;DHT22;4151;51.110;7.020;2023-01-20T01:44:11;1.10;99.90
8220;DHT22;4151;51.110;7.020;2023-01-20T01:46:37;1.10;99.90
8220;DHT22;4151;51.110;7.020;2023-01-20T01:49:25;1.10;99.90
8220;DHT22;4151;51.110;7.020;2023-01-20T01:52:01;1.10;99.90
8220;DHT22;4151;51.110;7.020;2023-01-20T01:54:34;1.10;99.90
8220;DHT22;4151;51.110;7.020;2023-01-20T01:57:01;1.10;99.90
8220;DHT22;4151;51.110;7.020;2023-01-20T01:59:27;1.10;99.90
8220;DHT22;4151;51.110;7.020;2023-01-20T02:01:53;1.10;99.90
8220;DHT22;4151;51.110;7.020;2023-01-20T02:04:23;1.10;99.90
8220;DHT22;4151;51.110;7.020;2023-01-20T02:07:02;1.10;99.90
8220;DHT22;4151;51.110;7.020;2023-01-20T02:09:30;1.00;99.90
8220;DHT22;4151;51.110;7.020;2023-01-20T02:11:59;1.00;99.90
8220;DHT22;4151;51.110;7.020;2023-01-20T02:14:49;1.00;99.90
8220;DHT22;4151;51.110;7.020;2023-01-20T02:17:30;1.00;99.90
8220;DHT22;4151;51.110;7.020;2023-01-20T02:23:10;1.00;99.90
8220;DHT22;4151;51.110;7.020;2023-01-20T02:37:18;1.10;99.90
8220;DHT22;4151;51.110;7.020;2023-01-20T02:39:55;1.00;99.90
8220;DHT22;4151;51.110;7.020;2023-01-20T02:42:31;1.00;99.90
8220;DHT22;4151;51.110;7.020;2023-01-20T02:45:03;1.00;99.90
8220;DHT22;4151;51.110;7.020;2023-01-20T02:53:13;1.00;99.90
8220;DHT22;4151;51.110;7.020;2023-01-20T02:55:43;1.00;99.90
8220;DHT22;4151;51.110;7.020;2023-01-20T02:58:15;1.00;99.90
8220;DHT22;4151;51.110;7.020;2023-01-20T03:00:49;1.00;99.90
8220;DHT22;4151;51.110;7.020;2023-01-20T03:03:18;1.00;99.90
8220;DHT22;4151;51.110;7.020;2023-01-20T03:05:58;1.00;99.90
8220;DHT22;4151;51.110;7.020;2023-01-20T03:08:26;1.00;99.90
8220;DHT22;4151;51.110;7.020;2023-01-20T03:10:54;1.00;99.90
8220;DHT22;4151;51.110;7.020;2023-01-20T03:13:29;1.00;99.90
8220;DHT22;4151;51.110;7.020;2023-01-20T03:16:02;1.00;99.90
8220;DHT22;4151;51.110;7.020;2023-01-20T03:18:30;1.00;99.90
8220;DHT22;4151;51.110;7.020;2023-01-20T03:20:58;1.00;99.90
8220;DHT22;4151;51.110;7.020;2023-01-20T03:23:25;1.00;99.90
8220;DHT22;4151;51.110;7.020;2023-01-20T03:25:53;1.00;99.90
8220;DHT22;4151;51.110;7.020;2023-01-20T03:28:19;1.00;99.90
8220;DHT22;4151;51.110;7.020;2023-01-20T03:30:45;1.00;99.90
8220;DHT22;4151;51.110;7.020;2023-01-20T03:33:11;1.00;99.90
8220;DHT22;4151;51.110;7.020;2023-01-20T03:35:38;1.00;99.90
8220;DHT22;4151;51.110;7.020;2023-01-20T03:38:04;1.00;99.90
8220;DHT22;4151;51.110;7.020;2023-01-20T03:40:35;1.00;99.90
8220;DHT22;4151;51.110;7.020;2023-01-20T03:43:11;1.10;99.90
8220;DHT22;4151;51.110;7.020;2023-01-20T03:45:45;1.10;99.90
8220;DHT22;4151;51.110;7.020;2023-01-20T03:48:44;1.10;99.90
8220;DHT22;4151;51.110;7.020;2023-01-20T03:51:20;1.10;99.90
8220;DHT22;4151;51.110;7.020;2023-01-20T03:53:53;1.10;99.90
8220;DHT22;4151;51.110;7.020;2023-01-20T03:56:27;1.20;99.90
8220;DHT22;4151;51.110;7.020;2023-01-20T03:58:56;1.20;99.90
8220;DHT22;4151;51.110;7.020;2023-01-20T04:01:36;1.20;99.90
8220;DHT22;4151;51.110;7.020;2023-01-20T04:04:04;1.30;99.90
8220;DHT22;4151;51.110;7.020;2023-01-20T04:06:33;1.30;99.90
8220;DHT22;4151;51.110;7.020;2023-01-20T04:09:06;1.30;99.90
8220;DHT22;4151;51.110;7.020;2023-01-20T04:11:32;1.30;99.90
8220;DHT22;4151;51.110;7.020;2023-01-20T04:13:58;1.30;99.90
8220;DHT22;4151;51.110;7.020;2023-01-20T04:16:24;1.30;99.90
8220;DHT22;4151;51.110;7.020;2023-01-20T04:18:51;1.30;99.90
8220;DHT22;4151;51.110;7.020;2023-01-20T04:21:35;1.40;99.90
8220;DHT22;4151;51.110;7.020;2023-01-20T04:26:38;1.30;99.90
8220;DHT22;4151;51.110;7.020;2023-01-20T04:29:04;1.40;99.90
8220;DHT22;4151;51.110;7.020;2023-01-20T04:31:33;1.40;99.90
8220;DHT22;4151;51.110;7.020;2023-01-20T04:34:00;1.40;99.90
8220;DHT22;4151;51.110;7.020;2023-01-20T04:36:25;1.40;99.90
8220;DHT22;4151;51.110;7.020;2023-01-20T04:38:51;1.40;99.90
8220;DHT22;4151;51.110;7.020;2023-01-20T04:41:17;1.40;99.90
8220;DHT22;4151;51.110;7.020;2023-01-20T04:43:43;1.40;99.90
8220;DHT22;4151;51.110;7.020;2023-01-20T04:46:11;1.40;99.90
8220;DHT22;4151;51.110;7.020;2023-01-20T04:48:37;1.40;99.90
8220;DHT22;4151;51.110;7.020;2023-01-20T04:51:03;1.40;99.90
8220;DHT22;4151;51.110;7.020;2023-01-20T04:53:29;1.40;99.90
8220;DHT22;4151;51.110;7.020;2023-01-20T04:55:54;1.40;99.90
8220;DHT22;4151;51.110;7.020;2023-01-20T04:58:20;1.40;99.90
8220;DHT22;4151;51.110;7.020;2023-01-20T05:00:46;1.40;99.90
8220;DHT22;4151;51.110;7.020;2023-01-20T05:03:11;1.40;99.90
8220;DHT22;4151;51.110;7.020;2023-01-20T05:05:37;1.40;99.90
8220;DHT22;4151;51.110;7.020;2023-01-20T05:08:02;1.40;99.90
8220;DHT22;4151;51.110;7.020;2023-01-20T05:10:30;1.40;99.90
8220;DHT22;4151;51.110;7.020;2023-01-20T05:12:57;1.40;99.90
8220;DHT22;4151;51.110;7.020;2023-01-20T05:15:22;1.40;99.90
8220;DHT22;4151;51.110;7.020;2023-01-20T05:17:48;1.40;99.90
8220;DHT22;4151;51.110;7.020;2023-01-20T05:20:13;1.40;99.90
8220;DHT22;4151;51.110;7.020;2023-01-20T05:22:39;1.30;99.90
8220;DHT22;4151;51.110;7.020;2023-01-20T05:25:05;1.30;99.90
8220;DHT22;4151;51.110;7.020;2023-01-20T05:27:34;1.30;99.90
8220;DHT22;4151;51.110;7.020;2023-01-20T05:29:59;1.30;99.90
8220;DHT22;4151;51.110;7.020;2023-01-20T05:32:25;1.30;99.90
8220;DHT22;4151;51.110;7.020;2023-01-20T05:34:51;1.30;99.90
8220;DHT22;4151;51.110;7.020;2023-01-20T05:37:17;1.30;99.90
8220;DHT22;4151;51.110;7.020;2023-01-20T05:39:42;1.30;99.90
8220;DHT22;4151;51.110;7.020;2023-01-20T05:42:08;1.30;99.90
8220;DHT22;4151;51.110;7.020;2023-01-20T05:44:33;1.30;99.90
8220;DHT22;4151;51.110;7.020;2023-01-20T05:47:00;1.20;99.90
8220;DHT22;4151;51.110;7.020;2023-01-20T05:49:26;1.30;99.90
8220;DHT22;4151;51.110;7.020;2023-01-20T05:51:51;1.30;99.90
8220;DHT22;4151;51.110;7.020;2023-01-20T05:54:17;1.30;99.90
8220;DHT22;4151;51.110;7.020;2023-01-20T05:56:43;1.30;99.90
8220;DHT22;4151;51.110;7.020;2023-01-20T05:59:09;1.30;99.90
8220;DHT22;4151;51.110;7.020;2023-01-20T06:01:35;1.30;99.90
8220;DHT22;4151;51.110;7.020;2023-01-20T06:04:00;1.30;99.90
8220;DHT22;4151;51.110;7.020;2023-01-20T06:06:26;1.30;99.90
8220;DHT22;4151;51.110;7.020;2023-01-20T06:08:52;1.30;99.90
8220;DHT22;4151;51.110;7.020;2023-01-20T06:11:18;1.30;99.90
8220;DHT22;4151;51.110;7.020;2023-01-20T06:13:46;1.30;99.90
8220;DHT22;4151;51.110;7.020;2023-01-20T06:16:12;1.30;99.90
8220;DHT22;4151;51.110;7.020;2023-01-20T06:18:38;1.30;99.90
8220;DHT22;4151;51.110;7.020;2023-01-20T06:21:04;1.30;99.90
8220;DHT22;4151;51.110;7.020;2023-01-20T06:23:30;1.30;99.90
8220;DHT22;4151;51.110;7.020;2023-01-20T06:26:01;1.30;99.90
8220;DHT22;4151;51.110;7.020;2023-01-20T06:28:28;1.30;99.90
8220;DHT22;4151;51.110;7.020;2023-01-20T06:31:01;1.30;99.90
8220;DHT22;4151;51.110;7.020;2023-01-20T06:33:27;1.30;99.90
8220;DHT22;4151;51.110;7.020;2023-01-20T06:35:53;1.30;99.90
8220;DHT22;4151;51.110;7.020;2023-01-20T06:38:20;1.30;99.90
8220;DHT22;4151;51.110;7.020;2023-01-20T06:40:46;1.30;99.90
8220;DHT22;4151;51.110;7.020;2023-01-20T06:43:11;1.30;99.90
8220;DHT22;4151;51.110;7.020;2023-01-20T06:45:37;1.30;99.90
8220;DHT22;4151;51.110;7.020;2023-01-20T06:48:03;1.30;99.90
8220;DHT22;4151;51.110;7.020;2023-01-20T06:50:28;1.30;99.90
8220;DHT22;4151;51.110;7.020;2023-01-20T06:52:54;1.30;99.90
8220;DHT22;4151;51.110;7.020;2023-01-20T06:55:20;1.30;99.90
8220;DHT22;4151;51.110;7.020;2023-01-20T06:57:46;1.30;99.90
8220;DHT22;4151;51.110;7.020;2023-01-20T07:00:12;1.30;99.90
8220;DHT22;4151;51.110;7.020;2023-01-20T07:02:37;1.30;99.90
8220;DHT22;4151;51.110;7.020;2023-01-20T07:05:03;1.30;99.90
8220;DHT22;4151;51.110;7.020;2023-01-20T07:07:33;1.30;99.90
8220;DHT22;4151;51.110;7.020;2023-01-20T07:10:00;1.30;99.90
8220;DHT22;4151;51.110;7.020;2023-01-20T07:12:25;1.30;99.90
8220;DHT22;4151;51.110;7.020;2023-01-20T07:14:51;1.40;99.90
8220;DHT22;4151;51.110;7.020;2023-01-20T07:17:16;1.30;99.90
8220;DHT22;4151;51.110;7.020;2023-01-20T07:19:42;1.40;99.90
8220;DHT22;4151;51.110;7.020;2023-01-20T07:22:07;1.30;99.90
8220;DHT22;4151;51.110;7.020;2023-01-20T07:24:33;1.30;99.90
8220;DHT22;4151;51.110;7.020;2023-01-20T07:26:59;1.30;99.90
8220;DHT22;4151;51.110;7.020;2023-01-20T07:29:25;1.30;99.90
8220;DHT22;4151;51.110;7.020;2023-01-20T07:31:51;1.30;99.90
8220;DHT22;4151;51.110;7.020;2023-01-20T07:34:16;1.30;99.90
8220;DHT22;4151;51.110;7.020;2023-01-20T07:36:42;1.30;99.90
8220;DHT22;4151;51.110;7.020;2023-01-20T07:39:09;1.30;99.90
8220;DHT22;4151;51.110;7.020;2023-01-20T07:41:35;1.20;99.90
8220;DHT22;4151;51.110;7.020;2023-01-20T07:44:01;1.20;99.90
8220;DHT22;4151;51.110;7.020;2023-01-20T07:46:26;1.20;99.90
8220;DHT22;4151;51.110;7.020;2023-01-20T07:48:52;1.20;99.90
8220;DHT22;4151;51.110;7.020;2023-01-20T07:51:17;1.20;99.90
8220;DHT22;4151;51.110;7.020;2023-01-20T07:53:48;1.20;99.90
8220;DHT22;4151;51.110;7.020;2023-01-20T07:56:17;1.20;99.90
8220;DHT22;4151;51.110;7.020;2023-01-20T07:58:43;1.20;99.90
8220;DHT22;4151;51.110;7.020;2023-01-20T08:01:17;1.20;99.90
8220;DHT22;4151;51.110;7.020;2023-01-20T08:03:43;1.30;99.90
8220;DHT22;4151;51.110;7.020;2023-01-20T08:06:10;1.20;99.90
8220;DHT22;4151;51.110;7.020;2023-01-20T08:08:36;1.30;99.90
8220;DHT22;4151;51.110;7.020;2023-01-20T08:11:02;1.30;99.90
8220;DHT22;4151;51.110;7.020;2023-01-20T08:13:28;1.30;99.90
8220;DHT22;4151;51.110;7.020;2023-01-20T08:15:58;1.30;99.90
8220;DHT22;4151;51.110;7.020;2023-01-20T08:18:24;1.40;99.90
8220;DHT22;4151;51.110;7.020;2023-01-20T08:20:49;1.40;99.90
8220;DHT22;4151;51.110;7.020;2023-01-20T08:23:15;1.40;99.90
8220;DHT22;4151;51.110;7.020;2023-01-20T08:25:40;1.40;99.90
8220;DHT22;4151;51.110;7.020;2023-01-20T08:28:06;1.40;99.90
8220;DHT22;4151;51.110;7.020;2023-01-20T08:30:31;1.50;99.90
8220;DHT22;4151;51.110;7.020;2023-01-20T08:32:57;1.50;99.90
8220;DHT22;4151;51.110;7.020;2023-01-20T08:35:22;1.50;99.90
8220;DHT22;4151;51.110;7.020;2023-01-20T08:37:48;1.50;99.90
8220;DHT22;4151;51.110;7.020;2023-01-20T08:40:14;1.50;99.90
8220;DHT22;4151;51.110;7.020;2023-01-20T08:42:39;1.50;99.90
8220;DHT22;4151;51.110;7.020;2023-01-20T08:45:06;1.50;99.90
8220;DHT22;4151;51.110;7.020;2023-01-20T08:47:36;1.40;99.90
8220;DHT22;4151;51.110;7.020;2023-01-20T08:50:04;1.40;99.90
8220;DHT22;4151;51.110;7.020;2023-01-20T08:52:30;1.40;99.90
8220;DHT22;4151;51.110;7.020;2023-01-20T08:54:56;1.40;99.90
8220;DHT22;4151;51.110;7.020;2023-01-20T08:57:26;1.40;99.90
8220;DHT22;4151;51.110;7.020;2023-01-20T08:59:52;1.40;99.90
8220;DHT22;4151;51.110;7.020;2023-01-20T09:02:18;1.50;99.90
8220;DHT22;4151;51.110;7.020;2023-01-20T09:04:44;1.50;99.90
8220;DHT22;4151;51.110;7.020;2023-01-20T09:07:11;1.50;99.90
8220;DHT22;4151;51.110;7.020;2023-01-20T09:09:37;1.50;99.90
8220;DHT22;4151;51.110;7.020;2023-01-20T09:12:04;1.50;99.90
8220;DHT22;4151;51.110;7.020;2023-01-20T09:14:30;1.60;99.90
8220;DHT22;4151;51.110;7.020;2023-01-20T09:16:56;1.60;99.90
8220;DHT22;4151;51.110;7.020;2023-01-20T09:19:22;1.70;99.90
8220;DHT22;4151;51.110;7.020;2023-01-20T09:21:47;1.60;99.90
8220;DHT22;4151;51.110;7.020;2023-01-20T09:24:13;1.70;99.90
8220;DHT22;4151;51.110;7.020;2023-01-20T09:26:39;1.70;99.90
8220;DHT22;4151;51.110;7.020;2023-01-20T09:29:08;1.70;99.90
8220;DHT22;4151;51.110;7.020;2023-01-20T09:31:39;1.70;99.90
8220;DHT22;4151;51.110;7.020;2023-01-20T09:34:08;1.70;99.90
8220;DHT22;4151;51.110;7.020;2023-01-20T09:36:34;1.80;99.90
8220;DHT22;4151;51.110;7.020;2023-01-20T09:38:59;1.90;99.90
8220;DHT22;4151;51.110;7.020;2023-01-20T09:41:47;1.90;99.90
8220;DHT22;4151;51.110;7.020;2023-01-20T09:47:15;1.90;99.90
8220;DHT22;4151;51.110;7.020;2023-01-20T09:58:14;2.10;99.90
8220;DHT22;4151;51.110;7.020;2023-01-20T10:06:27;2.10;99.90
8220;DHT22;4151;51.110;7.020;2023-01-20T10:09:04;2.20;99.90
8220;DHT22;4151;51.110;7.020;2023-01-20T10:11:42;2.40;99.90
8220;DHT22;4151;51.110;7.020;2023-01-20T10:17:08;2.70;99.90
8220;DHT22;4151;51.110;7.020;2023-01-20T10:19:48;2.70;99.90
8220;DHT22;4151;51.110;7.020;2023-01-20T10:22:30;2.80;99.90
8220;DHT22;4151;51.110;7.020;2023-01-20T10:25:05;2.70;99.90
8220;DHT22;4151;51.110;7.020;2023-01-20T10:27:36;2.50;99.90
8220;DHT22;4151;51.110;7.020;2023-01-20T10:30:11;2.40;99.90
8220;DHT22;4151;51.110;7.020;2023-01-20T10:32:40;2.30;99.90
8220;DHT22;4151;51.110;7.020;2023-01-20T10:35:21;2.30;99.90
8220;DHT22;4151;51.110;7.020;2023-01-20T10:37:47;2.30;99.90
8220;DHT22;4151;51.110;7.020;2023-01-20T10:42:49;2.30;99.90
8220;DHT22;4151;51.110;7.020;2023-01-20T10:45:34;2.40;99.90
8220;DHT22;4151;51.110;7.020;2023-01-20T10:50:43;2.50;99.90
8220;DHT22;4151;51.110;7.020;2023-01-20T10:53:38;2.50;99.90
8220;DHT22;4151;51.110;7.020;2023-01-20T10:56:15;2.60;99.90
8220;DHT22;4151;51.110;7.020;2023-01-20T10:58:44;2.60;99.90
8220;DHT22;4151;51.110;7.020;2023-01-20T11:01:14;2.60;99.90
8220;DHT22;4151;51.110;7.020;2023-01-20T11:03:42;2.60;99.90
8220;DHT22;4151;51.110;7.020;2023-01-20T11:06:18;2.60;99.90
8220;DHT22;4151;51.110;7.020;2023-01-20T11:08:44;2.70;99.90
8220;DHT22;4151;51.110;7.020;2023-01-20T11:11:30;2.60;99.90
8220;DHT22;4151;51.110;7.020;2023-01-20T11:13:56;2.50;99.90
8220;DHT22;4151;51.110;7.020;2023-01-20T11:16:25;2.50;99.90
8220;DHT22;4151;51.110;7.020;2023-01-20T11:18:57;2.50;99.90
8220;DHT22;4151;51.110;7.020;2023-01-20T11:21:24;2.50;99.90
8220;DHT22;4151;51.110;7.020;2023-01-20T11:23:52;2.50;99.90
8220;DHT22;4151;51.110;7.020;2023-01-20T11:26:34;2.50;99.90
8220;DHT22;4151;51.110;7.020;2023-01-20T11:45:34;2.80;99.90
8220;DHT22;4151;51.110;7.020;2023-01-20T11:50:53;2.80;99.90
8220;DHT22;4151;51.110;7.020;2023-01-20T11:53:28;2.90;99.90
8220;DHT22;4151;51.110;7.020;2023-01-20T11:58:25;3.00;99.90
8220;DHT22;4151;51.110;7.020;2023-01-20T12:01:04;3.00;99.90
8220;DHT22;4151;51.110;7.020;2023-01-20T12:03:52;2.90;99.90
8220;DHT22;4151;51.110;7.020;2023-01-20T12:06:58;2.90;99.90
8220;DHT22;4151;51.110;7.020;2023-01-20T12:09:18;3.00;99.90
8220;DHT22;4151;51.110;7.020;2023-01-20T12:17:31;2.90;99.90
8220;DHT22;4151;51.110;7.020;2023-01-20T12:22:57;2.80;99.90
8220;DHT22;4151;51.110;7.020;2023-01-20T12:28:20;2.90;99.90
8220;DHT22;4151;51.110;7.020;2023-01-20T12:30:57;2.90;99.90
8220;DHT22;4151;51.110;7.020;2023-01-20T12:33:27;3.00;99.90
8220;DHT22;4151;51.110;7.020;2023-01-20T12:38:28;2.90;99.90
8220;DHT22;4151;51.110;7.020;2023-01-20T12:40:55;3.00;99.90
8220;DHT22;4151;51.110;7.020;2023-01-20T12:46:33;3.00;99.90
8220;DHT22;4151;51.110;7.020;2023-01-20T12:49:29;2.90;99.90
8220;DHT22;4151;51.110;7.020;2023-01-20T12:52:13;2.90;99.90
8220;DHT22;4151;51.110;7.020;2023-01-20T12:58:20;2.90;99.90
8220;DHT22;4151;51.110;7.020;2023-01-20T13:03:59;2.90;99.90
8220;DHT22;4151;51.110;7.020;2023-01-20T13:06:40;2.80;99.90
8220;DHT22;4151;51.110;7.020;2023-01-20T13:09:34;2.70;99.90
8220;DHT22;4151;51.110;7.020;2023-01-20T13:20:24;2.70;99.90
8220;DHT22;4151;51.110;7.020;2023-01-20T13:22:52;2.70;99.90
8220;DHT22;4151;51.110;7.020;2023-01-20T13:25:18;2.70;99.90
8220;DHT22;4151;51.110;7.020;2023-01-20T13:27:46;2.70;99.90
8220;DHT22;4151;51.110;7.020;2023-01-20T13:30:38;2.70;99.90
8220;DHT22;4151;51.110;7.020;2023-01-20T13:33:11;2.70;99.90
8220;DHT22;4151;51.110;7.020;2023-01-20T13:35:44;2.70;99.90
8220;DHT22;4151;51.110;7.020;2023-01-20T13:38:27;2.60;99.90
8220;DHT22;4151;51.110;7.020;2023-01-20T13:40:59;2.60;99.90
8220;DHT22;4151;51.110;7.020;2023-01-20T13:43:56;2.60;99.90
8220;DHT22;4151;51.110;7.020;2023-01-20T13:49:14;2.60;99.90
8220;DHT22;4151;51.110;7.020;2023-01-20T13:51:45;2.60;99.90
8220;DHT22;4151;51.110;7.020;2023-01-20T13:59:44;2.70;99.90
8220;DHT22;4151;51.110;7.020;2023-01-20T14:02:22;2.80;99.90
8220;DHT22;4151;51.110;7.020;2023-01-20T14:04:48;2.70;99.90
8220;DHT22;4151;51.110;7.020;2023-01-20T14:07:25;2.70;99.90
8220;DHT22;4151;51.110;7.020;2023-01-20T14:09:56;2.70;99.90
8220;DHT22;4151;51.110;7.020;2023-01-20T14:12:22;2.70;99.90
8220;DHT22;4151;51.110;7.020;2023-01-20T14:14:48;2.70;99.90
8220;DHT22;4151;51.110;7.020;2023-01-20T14:17:18;2.70;99.90
8220;DHT22;4151;51.110;7.020;2023-01-20T14:19:46;2.60;99.90
8220;DHT22;4151;51.110;7.020;2023-01-20T14:22:19;2.50;99.90
8220;DHT22;4151;51.110;7.020;2023-01-20T14:31:59;2.50;99.90
8220;DHT22;4151;51.110;7.020;2023-01-20T14:34:30;2.40;99.90
8220;DHT22;4151;51.110;7.020;2023-01-20T14:37:10;2.30;99.90
8220;DHT22;4151;51.110;7.020;2023-01-20T14:39:47;2.40;99.90
8220;DHT22;4151;51.110;7.020;2023-01-20T14:42:17;2.40;99.90
8220;DHT22;4151;51.110;7.020;2023-01-20T14:44:46;2.30;99.90
8220;DHT22;4151;51.110;7.020;2023-01-20T14:47:14;2.30;99.90
8220;DHT22;4151;51.110;7.020;2023-01-20T14:49:39;2.30;99.90
8220;DHT22;4151;51.110;7.020;2023-01-20T14:52:11;2.30;99.90
8220;DHT22;4151;51.110;7.020;2023-01-20T14:54:41;2.30;99.90
8220;DHT22;4151;51.110;7.020;2023-01-20T14:57:29;2.30;99.90
8220;DHT22;4151;51.110;7.020;2023-01-20T15:00:32;2.20;99.90
8220;DHT22;4151;51.110;7.020;2023-01-20T15:03:25;2.20;99.90
8220;DHT22;4151;51.110;7.020;2023-01-20T15:11:10;2.10;99.90
8220;DHT22;4151;51.110;7.020;2023-01-20T15:13:38;2.10;99.90
8220;DHT22;4151;51.110;7.020;2023-01-20T15:16:16;2.10;99.90
8220;DHT22;4151;51.110;7.020;2023-01-20T15:21:48;2.10;99.90
8220;DHT22;4151;51.110;7.020;2023-01-20T15:24:28;2.10;99.90
8220;DHT22;4151;51.110;7.020;2023-01-20T15:26:54;2.10;99.90
8220;DHT22;4151;51.110;7.020;2023-01-20T15:29:32;2.10;99.90
8220;DHT22;4151;51.110;7.020;2023-01-20T15:32:00;2.10;99.90
8220;DHT22;4151;51.110;7.020;2023-01-20T15:34:26;2.10;99.90
8220;DHT22;4151;51.110;7.020;2023-01-20T15:36:53;2.10;99.90
8220;DHT22;4151;51.110;7.020;2023-01-20T15:39:24;2.10;99.90
8220;DHT22;4151;51.110;7.020;2023-01-20T15:41:53;2.10;99.90
8220;DHT22;4151;51.110;7.020;2023-01-20T15:44:19;2.10;99.90
8220;DHT22;4151;51.110;7.020;2023-01-20T15:46:44;2.00;99.90
8220;DHT22;4151;51.110;7.020;2023-01-20T15:49:11;2.00;99.90
8220;DHT22;4151;51.110;7.020;2023-01-20T15:51:37;2.00;99.90
8220;DHT22;4151;51.110;7.020;2023-01-20T15:54:03;2.00;99.90
8220;DHT22;4151;51.110;7.020;2023-01-20T15:56:32;2.00;99.90
8220;DHT22;4151;51.110;7.020;2023-01-20T15:58:59;2.00;99.90
8220;DHT22;4151;51.110;7.020;2023-01-20T16:01:26;2.00;99.90
8220;DHT22;4151;51.110;7.020;2023-01-20T16:03:55;2.00;99.90
8220;DHT22;4151;51.110;7.020;2023-01-20T16:06:26;2.00;99.90
8220;DHT22;4151;51.110;7.020;2023-01-20T16:08:52;2.00;99.90
8220;DHT22;4151;51.110;7.020;2023-01-20T16:11:18;2.00;99.90
8220;DHT22;4151;51.110;7.020;2023-01-20T16:13:44;2.00;99.90
8220;DHT22;4151;51.110;7.020;2023-01-20T16:16:15;1.90;99.90
8220;DHT22;4151;51.110;7.020;2023-01-20T16:18:41;1.90;99.90
8220;DHT22;4151;51.110;7.020;2023-01-20T16:21:09;1.90;99.90
8220;DHT22;4151;51.110;7.020;2023-01-20T16:23:35;1.80;99.90
8220;DHT22;4151;51.110;7.020;2023-01-20T16:26:01;1.80;99.90
8220;DHT22;4151;51.110;7.020;2023-01-20T16:28:26;1.80;99.90
8220;DHT22;4151;51.110;7.020;2023-01-20T16:30:53;1.80;99.90
8220;DHT22;4151;51.110;7.020;2023-01-20T16:33:24;1.80;99.90
8220;DHT22;4151;51.110;7.020;2023-01-20T16:35:51;1.80;99.90
8220;DHT22;4151;51.110;7.020;2023-01-20T16:38:19;1.70;99.90
8220;DHT22;4151;51.110;7.020;2023-01-20T16:40:51;1.60;99.90
8220;DHT22;4151;51.110;7.020;2023-01-20T16:43:18;1.50;99.90
8220;DHT22;4151;51.110;7.020;2023-01-20T16:45:47;1.50;99.90
8220;DHT22;4151;51.110;7.020;2023-01-20T16:48:17;1.30;99.90
8220;DHT22;4151;51.110;7.020;2023-01-20T16:50:42;1.20;99.90
8220;DHT22;4151;51.110;7.020;2023-01-20T16:53:10;1.10;99.90
8220;DHT22;4151;51.110;7.020;2023-01-20T16:55:36;1.00;99.90
8220;DHT22;4151;51.110;7.020;2023-01-20T16:58:01;0.90;99.90
8220;DHT22;4151;51.110;7.020;2023-01-20T17:00:29;0.80;99.90
8220;DHT22;4151;51.110;7.020;2023-01-20T17:02:55;0.80;99.90
8220;DHT22;4151;51.110;7.020;2023-01-20T17:05:21;0.60;99.90
8220;DHT22;4151;51.110;7.020;2023-01-20T17:07:51;0.60;99.90
8220;DHT22;4151;51.110;7.020;2023-01-20T17:10:17;0.50;99.90
8220;DHT22;4151;51.110;7.020;2023-01-20T17:12:43;0.40;99.90
8220;DHT22;4151;51.110;7.020;2023-01-20T17:15:09;0.40;99.90
8220;DHT22;4151;51.110;7.020;2023-01-20T17:17:35;0.30;99.90
8220;DHT22;4151;51.110;7.020;2023-01-20T17:20:04;0.30;99.90
8220;DHT22;4151;51.110;7.020;2023-01-20T17:22:37;0.20;99.90
8220;DHT22;4151;51.110;7.020;2023-01-20T17:25:08;0.20;99.90
8220;DHT22;4151;51.110;7.020;2023-01-20T17:27:34;0.10;99.90
8220;DHT22;4151;51.110;7.020;2023-01-20T17:30:00;0.10;99.90
8220;DHT22;4151;51.110;7.020;2023-01-20T17:32:26;0.10;99.90
8220;DHT22;4151;51.110;7.020;2023-01-20T17:34:51;0.00;99.90
8220;DHT22;4151;51.110;7.020;2023-01-20T17:37:17;-0.10;99.90
8220;DHT22;4151;51.110;7.020;2023-01-20T17:39:43;-0.10;99.90
8220;DHT22;4151;51.110;7.020;2023-01-20T17:42:10;-0.10;99.90
8220;DHT22;4151;51.110;7.020;2023-01-20T17:44:36;-0.20;99.90
8220;DHT22;4151;51.110;7.020;2023-01-20T17:47:03;-0.30;99.90
8220;DHT22;4151;51.110;7.020;2023-01-20T17:49:28;-0.40;99.90
8220;DHT22;4151;51.110;7.020;2023-01-20T17:51:54;-0.30;99.90
8220;DHT22;4151;51.110;7.020;2023-01-20T17:54:19;-0.30;99.90
8220;DHT22;4151;51.110;7.020;2023-01-20T17:56:45;-0.40;99.90
8220;DHT22;4151;51.110;7.020;2023-01-20T17:59:12;-0.40;99.90
8220;DHT22;4151;51.110;7.020;2023-01-20T18:01:38;-0.40;99.90
8220;DHT22;4151;51.110;7.020;2023-01-20T18:04:04;-0.50;99.90
8220;DHT22;4151;51.110;7.020;2023-01-20T18:06:31;-0.50;99.90
8220;DHT22;4151;51.110;7.020;2023-01-20T18:09:00;-0.50;99.90
8220;DHT22;4151;51.110;7.020;2023-01-20T18:11:29;-0.50;99.90
8220;DHT22;4151;51.110;7.020;2023-01-20T18:13:56;-0.50;99.90
8220;DHT22;4151;51.110;7.020;2023-01-20T18:16:26;-0.40;99.90
8220;DHT22;4151;51.110;7.020;2023-01-20T18:18:51;-0.40;99.90
8220;DHT22;4151;51.110;7.020;2023-01-20T18:21:24;-0.40;99.90
8220;DHT22;4151;51.110;7.020;2023-01-20T18:23:50;-0.40;99.90
8220;DHT22;4151;51.110;7.020;2023-01-20T18:26:18;-0.40;99.90
8220;DHT22;4151;51.110;7.020;2023-01-20T18:28:45;-0.40;99.90
8220;DHT22;4151;51.110;7.020;2023-01-20T18:43:53;-0.50;99.90
8220;DHT22;4151;51.110;7.020;2023-01-20T18:46:19;-0.60;99.90
8220;DHT22;4151;51.110;7.020;2023-01-20T18:48:46;-0.60;99.90